Nearby METAR Reports

 

KIMT - Iron Mountain, Michigan, USA
Distance from station: 0 29mi, 47km
Updated: Fri, 28-Feb-2020 2:54pm CST
Clear
Clear
 Wind from NW
Wind: NW 24 mph , 39 km/h, Gust: 36 mph , 57 km/h
Temperature: 23°F , -5°C
Wind Chill: 7°F , -14°C
Dew Point: 1°F , -17°C
Humidity: 39%
Barometer: 29.91 inHg , 1012.9 hPa
Clouds: Clear
Visibility: 10 miles , 16 km
2020/02/28 20:54 KIMT 282054Z AUTO 32021G31KT 10SM CLR M05/M17 A2991 RMK AO2 PK WND 31034/2044 SLP152 T10501167 53008
KMNM - Menominee, Michigan, USA
Distance from station: SE 31mi, 51km
Updated: Fri, 28-Feb-2020 2:56pm CST
Mostly cloudy
Mostly cloudy
 Wind from NNW
Wind: NNW 17 mph , 28 km/h, Gust: 31 mph , 50 km/h
Temperature: 28°F , -2°C
Wind Chill: 16°F , -9°C
Dew Point: 3°F , -16°C
Humidity: 34%
Barometer: 29.93 inHg , 1013.5 hPa
Clouds: Mostly cloudy
Visibility: 10 miles , 16 km
Cloud details: Mostly cloudy 10000 ft
2020/02/28 20:56 KMNM 282056Z AUTO 34015G27KT 10SM BKN100 M02/M16 A2993 RMK AO2 PK WND 36027/2054 SLP146 T10221161 53004 FZRANO $
 
KOCQ - Oconto, Wisconsin, USA
Distance from station: SSE 38mi, 61km
Updated: Fri, 28-Feb-2020 2:55pm CST
Clear
Clear
 Wind from WNW
Wind: WNW 8 mph , 13 km/h, Gust: 17 mph , 28 km/h
Temperature: 27°F , -3°C
Wind Chill: 19°F , -7°C
Dew Point: 5°F , -15°C
Humidity: 39%
Barometer: 29.94 inHg , 1013.9 hPa
Clouds: Clear
Visibility: 10 miles , 16 km
2020/02/28 20:55 KOCQ 282055Z AUTO 29007G15KT 10SM CLR M03/M15 A2994 RMK AO1 T10301155
KEZS - Shawano Muni, Wisconsin, USA
Distance from station: SSW 48mi, 77km
Updated: Fri, 28-Feb-2020 2:55pm CST
Clear
Clear
 Wind from WNW
Wind: WNW 14 mph , 22 km/h, Gust: 18 mph , 30 km/h
Temperature: 28°F , -2°C
Wind Chill: 17°F , -8°C
Dew Point: 5°F , -15°C
Humidity: 37%
Barometer: 29.97 inHg , 1014.9 hPa
Clouds: Clear
Visibility: 10 miles , 16 km
2020/02/28 20:55 KEZS 282055Z AUTO 29012G16KT 10SM CLR M02/M15 A2997 RMK AO2 T10201150
 
KAIG - Antigo/Langlade, Wisconsin, USA
Distance from station: WSW 51mi, 82km
Updated: Fri, 28-Feb-2020 2:55pm CST
Clear
Clear
 Wind from NW
Wind: NW 13 mph , 20 km/h, Gust: 22 mph , 35 km/h
Temperature: 23°F , -5°C
Wind Chill: 11°F , -12°C
Dew Point: 3°F , -16°C
Humidity: 42%
Barometer: 29.95 inHg , 1014.2 hPa
Clouds: Clear
Visibility: 10 miles , 16 km
2020/02/28 20:55 KAIG 282055Z AUTO 32011G19KT 10SM CLR M05/M16 A2995 RMK AO2 T10551159
KSUE - Sturgeon Bay, Wisconsin, USA
Distance from station: SE 51mi, 82km
Updated: Fri, 28-Feb-2020 2:56pm CST
Clear
Clear
 Wind from NW
Wind: NW 16 mph , 26 km/h, Gust: 21 mph , 33 km/h
Temperature: 28°F , -2°C
Wind Chill: 16°F , -9°C
Dew Point: 7°F , -14°C
Humidity: 40%
Barometer: 29.93 inHg , 1013.5 hPa
Clouds: Clear
Visibility: 10 miles , 16 km
2020/02/28 20:56 KSUE 282056Z AUTO 32014G18KT 10SM CLR M02/M14 A2993 RMK AO2 SLP147 T10171139 53006 FZRANO
 
KESC - Escanaba, Michigan, USA
Distance from station: ENE 56mi, 90km
Updated: Fri, 28-Feb-2020 2:56pm CST
Clear
Clear
 Wind from NW
Wind: NW 13 mph , 20 km/h, Gust: 23 mph , 37 km/h
Temperature: 23°F , -5°C
Wind Chill: 11°F , -12°C
Dew Point: 5°F , -15°C
Humidity: 46%
Barometer: 29.92 inHg , 1013.2 hPa
Clouds: Clear
Visibility: 10 miles , 16 km
2020/02/28 20:56 KESC 282056Z AUTO 32011G20KT 290V350 10SM CLR M05/M15 A2992 RMK AO2 SLP147 T10501150 53011 FZRANO
KCLI - Clintonville, Wisconsin, USA
Distance from station: SSW 62mi, 99km
Updated: Fri, 28-Feb-2020 2:55pm CST
Clear
Clear
 Wind from WNW
Wind: WNW 17 mph , 28 km/h, Gust: 24 mph , 39 km/h
Temperature: 27°F , -3°C
Wind Chill: 14°F , -10°C
Dew Point: 3°F , -16°C
Humidity: 36%
Barometer: 29.98 inHg , 1015.2 hPa
Clouds: Clear
Visibility: 10 miles , 16 km
2020/02/28 20:55 KCLI 282055Z AUTO 30015G21KT 10SM CLR M03/M16 A2998 RMK AO2 T10271163
 
KGRB - Ashwaubenon, Wisconsin, USA
Distance from station: S 63mi, 102km
Updated: Fri, 28-Feb-2020 2:53pm CST
Clear
Clear
 Wind from WNW
Wind: WNW 16 mph , 26 km/h, Gust: 23 mph , 37 km/h
Temperature: 28°F , -2°C
Wind Chill: 16°F , -9°C
Dew Point: 7°F , -14°C
Humidity: 40%
Barometer: 29.97 inHg , 1014.9 hPa
Clouds: Clear
Visibility: 10 miles , 16 km
2020/02/28 20:53 KGRB 282053Z AUTO 30014G20KT 10SM CLR M02/M14 A2997 RMK AO2 SLP161 T10221144 53001
KEGV - Eagle River, Wisconsin, USA
Distance from station: NW 66mi, 107km
Updated: Fri, 28-Feb-2020 2:55pm CST
Clear
Clear
 Wind from NW
Wind: NW 14 mph , 22 km/h, Gust: 26 mph , 43 km/h
Temperature: 21°F , -6°C
Wind Chill: 8°F , -13°C
Dew Point: -0°F , -18°C
Humidity: 38%
Barometer: 29.95 inHg , 1014.2 hPa
Clouds: Clear
Visibility: 10 miles , 16 km
2020/02/28 20:55 KEGV 282055Z AUTO 31012G23KT 10SM CLR M06/M18 A2995 RMK AO2 T10651183
 
KRHI - Rhinelander, Wisconsin, USA
Distance from station: WNW 68mi, 109km
Updated: Fri, 28-Feb-2020 2:53pm CST
Clear
Clear
 Wind from NW
Wind: NW 17 mph , 28 km/h, Gust: 25 mph , 41 km/h
Temperature: 21°F , -6°C
Wind Chill: 7°F , -14°C
Dew Point: 1°F , -17°C
Humidity: 42%
Barometer: 29.96 inHg , 1014.6 hPa
Clouds: Clear
Visibility: 10 miles , 16 km
2020/02/28 20:53 KRHI 282053Z AUTO 32015G22KT 10SM CLR M06/M17 A2996 RMK AO2 SLP182 T10611172 53006
KLNL - Land O Lakes, Wisconsin, USA
Distance from station: NW 74mi, 119km
Updated: Fri, 28-Feb-2020 2:55pm CST
Clear
Clear
 Wind from NNW
Wind: NNW 14 mph , 22 km/h, Gust: 28 mph , 44 km/h
Temperature: 21°F , -6°C
Wind Chill: 8°F , -13°C
Dew Point: -0°F , -18°C
Humidity: 38%
Barometer: 29.97 inHg , 1014.9 hPa
Clouds: Clear
Visibility: 10 miles , 16 km
2020/02/28 20:55 KLNL 282055Z AUTO 33012G24KT 10SM CLR M06/M18 A2997 RMK AO2 T10601176
 
KSAW - Gwinn/Sawyer, Michigan, USA
Distance from station: NNE 74mi, 120km
Updated: Fri, 28-Feb-2020 2:45pm CST
Mostly cloudy
Mostly cloudy
 Wind from NNW
Wind: NNW 21 mph , 33 km/h
Temperature: 19°F , -7°C
Wind Chill: 3°F , -16°C
Dew Point: 5°F , -15°C
Humidity: 53%
Barometer: 29.88 inHg , 1011.9 hPa
Clouds: Mostly cloudy
Visibility: 10 miles , 16 km
Cloud details: Mostly cloudy 6500 ft
2020/02/28 20:45 KSAW 282045Z 33018KT 10SM BKN065 M07/M15 A2988